createdAt,value
2023-03-29T05:01:11.649Z,25.00
2023-03-29T05:02:11.722Z,25.00
2023-03-29T05:03:11.741Z,25.00
2023-03-29T05:04:12.896Z,25.00
2023-03-29T05:05:11.660Z,25.00
2023-03-29T05:06:11.653Z,25.00
2023-03-29T05:07:11.615Z,0.00
2023-03-29T05:08:11.655Z,0.00
2023-03-29T05:09:11.612Z,0.00
2023-03-29T05:10:11.625Z,0.00
2023-03-29T05:11:11.671Z,0.00
2023-03-29T05:12:11.586Z,0.00
2023-03-29T05:13:12.167Z,0.00
2023-03-29T05:14:11.553Z,0.00
2023-03-29T05:15:11.572Z,0.00
2023-03-29T05:16:11.593Z,0.00
2023-03-29T05:17:11.569Z,0.00
2023-03-29T05:18:11.621Z,0.00
2023-03-29T05:19:11.526Z,0.00
2023-03-29T05:20:11.539Z,0.00
2023-03-29T05:21:11.526Z,0.00
2023-03-29T05:22:11.547Z,0.00
2023-03-29T05:23:11.513Z,0.00
2023-03-29T05:24:11.542Z,0.00
2023-03-29T05:25:11.540Z,0.00
2023-03-29T05:26:11.497Z,0.00
2023-03-29T05:27:11.531Z,0.00
2023-03-29T05:28:11.541Z,0.00
2023-03-29T05:29:11.625Z,0.00
2023-03-29T05:30:11.705Z,0.00
2023-03-29T05:31:12.171Z,0.00
2023-03-29T05:32:11.952Z,0.00
2023-03-29T05:33:11.878Z,0.00
2023-03-29T05:34:11.928Z,7.23
2023-03-29T05:35:11.974Z,25.00
2023-03-29T05:36:12.102Z,25.63
2023-03-29T05:37:12.140Z,25.01
2023-03-29T05:38:12.149Z,25.00
2023-03-29T05:39:12.236Z,25.45
2023-03-29T05:40:12.347Z,25.00
2023-03-29T05:41:12.320Z,25.00
2023-03-29T05:42:12.344Z,25.05
2023-03-29T05:43:12.399Z,25.00
2023-03-29T05:44:12.396Z,27.16
2023-03-29T05:45:12.418Z,25.14
2023-03-29T05:46:12.542Z,26.40
2023-03-29T05:47:12.430Z,25.00
2023-03-29T05:48:12.415Z,27.25
2023-03-29T05:49:12.439Z,27.26
2023-03-29T05:50:12.484Z,25.00
2023-03-29T05:51:12.513Z,25.67
2023-03-29T05:52:12.460Z,25.80
2023-03-29T05:53:12.479Z,28.40
2023-03-29T05:54:12.504Z,27.85
2023-03-29T05:55:12.499Z,25.00
2023-03-29T05:56:12.482Z,26.28
2023-03-29T05:57:12.623Z,26.64
2023-03-29T05:58:12.537Z,26.82
2023-03-29T05:59:12.553Z,25.58
2023-03-29T06:00:12.616Z,26.08
2023-03-29T06:01:12.636Z,26.60
2023-03-29T06:02:12.749Z,25.00
2023-03-29T06:03:20.151Z,25.43
2023-03-29T06:04:13.789Z,25.51
2023-03-29T06:05:12.714Z,20.79
2023-03-29T06:06:12.711Z,25.69
2023-03-29T06:07:12.771Z,28.62
2023-03-29T06:08:12.683Z,34.27
2023-03-29T06:09:12.678Z,37.66
2023-03-29T06:10:12.673Z,39.91
2023-03-29T06:11:12.667Z,33.16
2023-03-29T06:12:12.705Z,30.97
2023-03-29T06:13:12.778Z,32.04
2023-03-29T06:14:12.843Z,33.50
2023-03-29T06:15:12.876Z,36.10
2023-03-29T06:16:12.926Z,36.58
2023-03-29T06:17:13.016Z,37.38
2023-03-29T06:18:13.038Z,39.35
2023-03-29T06:19:13.024Z,39.65
2023-03-29T06:20:13.047Z,39.65
2023-03-29T06:21:13.082Z,33.94
2023-03-29T06:22:14.814Z,29.29
2023-03-29T06:23:13.213Z,27.60
2023-03-29T06:24:13.238Z,27.43
2023-03-29T06:25:13.290Z,27.47
2023-03-29T06:26:13.373Z,28.07
2023-03-29T06:27:13.374Z,28.89
2023-03-29T06:28:13.397Z,28.41
2023-03-29T06:29:13.416Z,45.65
2023-03-29T06:30:13.465Z,49.31
2023-03-29T06:31:13.481Z,50.64
2023-03-29T06:32:13.524Z,49.48
2023-03-29T06:33:13.548Z,45.79
2023-03-29T06:34:13.546Z,40.64
2023-03-29T06:35:13.557Z,47.16
2023-03-29T06:36:13.640Z,56.11
2023-03-29T06:37:13.617Z,56.52
2023-03-29T06:38:13.607Z,58.35
2023-03-29T06:39:13.632Z,62.79
2023-03-29T06:40:13.660Z,61.43
2023-03-29T06:41:13.722Z,65.63
2023-03-29T06:42:21.128Z,64.06
2023-03-29T06:43:14.675Z,64.35
2023-03-29T06:44:13.681Z,64.57
2023-03-29T06:45:13.640Z,64.20
2023-03-29T06:46:13.724Z,56.98
2023-03-29T06:47:13.654Z,60.85
2023-03-29T06:48:13.669Z,61.48
2023-03-29T06:49:13.617Z,67.14
2023-03-29T06:50:13.692Z,65.01
2023-03-29T06:51:13.638Z,69.02
2023-03-29T06:52:13.612Z,67.21
2023-03-29T06:53:13.587Z,70.33
2023-03-29T06:54:13.636Z,68.78
2023-03-29T06:55:13.652Z,72.96
2023-03-29T06:56:13.580Z,79.68
2023-03-29T06:57:13.629Z,75.42
2023-03-29T06:58:14.222Z,78.56
2023-03-29T06:59:23.424Z,81.85
2023-03-29T07:00:13.626Z,82.44
2023-03-29T07:01:13.559Z,83.48
2023-03-29T07:02:13.599Z,85.33
2023-03-29T07:03:14.228Z,90.13
2023-03-29T07:04:13.559Z,95.26
2023-03-29T07:05:13.529Z,94.67
2023-03-29T07:06:13.481Z,95.75
2023-03-29T07:07:13.507Z,90.58
2023-03-29T07:08:13.490Z,95.58
2023-03-29T07:09:13.479Z,84.52
2023-03-29T07:10:13.491Z,85.27
2023-03-29T07:11:13.490Z,96.60
2023-03-29T07:12:13.466Z,84.83
2023-03-29T07:13:13.460Z,82.20
2023-03-29T07:14:13.434Z,83.38
2023-03-29T07:15:13.454Z,78.76
2023-03-29T07:16:13.488Z,74.48
2023-03-29T07:17:13.501Z,75.93
2023-03-29T07:18:13.463Z,74.96
2023-03-29T07:19:13.430Z,74.54
2023-03-29T07:20:13.467Z,80.28
2023-03-29T07:21:13.430Z,76.52
2023-03-29T07:22:13.400Z,79.15
2023-03-29T07:23:13.405Z,81.12
2023-03-29T07:24:13.403Z,77.83
2023-03-29T07:25:13.378Z,77.84
2023-03-29T07:26:13.405Z,76.38
2023-03-29T07:27:13.373Z,77.12
2023-03-29T07:28:13.443Z,78.26
2023-03-29T07:29:13.434Z,74.61
2023-03-29T07:30:13.346Z,75.09
2023-03-29T07:31:13.357Z,69.37
2023-03-29T07:32:13.328Z,69.36
2023-03-29T07:33:13.494Z,67.58
2023-03-29T07:34:13.424Z,73.76
2023-03-29T07:35:13.304Z,68.84
2023-03-29T07:36:13.313Z,69.67
2023-03-29T07:37:13.316Z,68.11
2023-03-29T07:38:13.316Z,71.68
2023-03-29T07:39:13.260Z,72.97
2023-03-29T07:40:13.335Z,74.95
2023-03-29T07:41:13.637Z,71.19
2023-03-29T07:42:13.291Z,72.85
2023-03-29T07:43:13.248Z,71.69
2023-03-29T07:44:13.216Z,75.81
2023-03-29T07:45:13.305Z,71.75
2023-03-29T07:46:13.258Z,65.47
2023-03-29T07:47:13.188Z,67.56
2023-03-29T07:48:13.360Z,71.18
2023-03-29T07:49:13.208Z,106.97
2023-03-29T07:50:13.242Z,133.41
2023-03-29T07:51:13.208Z,139.16
2023-03-29T07:52:13.190Z,156.46
2023-03-29T07:53:13.160Z,167.78
2023-03-29T07:54:13.176Z,180.66
2023-03-29T07:55:13.179Z,186.33
2023-03-29T07:56:13.139Z,185.97
2023-03-29T07:57:13.161Z,182.18
2023-03-29T07:58:13.198Z,182.34
2023-03-29T07:59:13.152Z,185.09
2023-03-29T08:00:13.151Z,178.20
2023-03-29T08:01:15.356Z,180.35
2023-03-29T08:02:14.153Z,180.47
2023-03-29T08:03:14.031Z,180.91
2023-03-29T08:04:13.586Z,181.77
2023-03-29T08:05:13.275Z,183.58
2023-03-29T08:06:19.263Z,181.52
2023-03-29T08:07:17.696Z,180.97
2023-03-29T08:08:13.447Z,181.14
2023-03-29T08:09:13.455Z,182.40
2023-03-29T08:10:13.419Z,183.60
2023-03-29T08:11:13.422Z,182.99
2023-03-29T08:12:13.415Z,182.39
2023-03-29T08:13:13.437Z,182.99
2023-03-29T08:14:13.432Z,181.57
2023-03-29T08:15:13.461Z,183.12
2023-03-29T08:16:13.441Z,181.28
2023-03-29T08:17:13.463Z,179.96
2023-03-29T08:18:13.503Z,178.98
2023-03-29T08:19:13.409Z,182.01
2023-03-29T08:20:13.450Z,179.53
2023-03-29T08:21:13.413Z,172.19
2023-03-29T08:22:13.426Z,174.76
2023-03-29T08:23:13.493Z,170.31
2023-03-29T08:24:13.454Z,169.09
2023-03-29T08:25:13.498Z,162.49
2023-03-29T08:26:13.465Z,157.02
2023-03-29T08:27:13.476Z,155.97
2023-03-29T08:28:14.101Z,154.43
2023-03-29T08:29:13.447Z,154.33
2023-03-29T08:30:13.533Z,153.26
2023-03-29T08:31:13.641Z,146.95
2023-03-29T08:32:13.478Z,149.02
2023-03-29T08:33:13.573Z,147.79
2023-03-29T08:34:13.517Z,143.78
2023-03-29T08:35:13.535Z,141.49
2023-03-29T08:36:13.588Z,135.25
2023-03-29T08:37:13.573Z,132.05
2023-03-29T08:38:13.629Z,123.50
2023-03-29T08:39:13.603Z,130.55
2023-03-29T08:40:13.657Z,122.45
2023-03-29T08:41:13.651Z,111.84
2023-03-29T08:42:13.685Z,107.25
2023-03-29T08:43:13.702Z,99.55
2023-03-29T08:44:13.716Z,93.65
2023-03-29T08:45:13.764Z,84.92
2023-03-29T08:46:13.763Z,85.53
2023-03-29T08:47:13.768Z,83.85
2023-03-29T08:48:13.822Z,91.56
2023-03-29T08:49:13.841Z,106.53
2023-03-29T08:50:13.814Z,111.17
2023-03-29T08:51:14.574Z,111.41
2023-03-29T08:52:13.850Z,110.64
2023-03-29T08:53:13.897Z,104.18
2023-03-29T08:54:13.925Z,106.93
2023-03-29T08:55:13.914Z,105.84
2023-03-29T08:56:14.040Z,108.81
2023-03-29T08:57:13.927Z,109.00
2023-03-29T08:58:13.909Z,107.52
2023-03-29T08:59:13.928Z,108.94
2023-03-29T09:00:13.930Z,109.16
2023-03-29T09:01:13.902Z,110.70
2023-03-29T09:02:13.944Z,108.66
2023-03-29T09:03:13.969Z,114.30
2023-03-29T09:04:13.935Z,118.15
2023-03-29T09:05:13.927Z,121.45
2023-03-29T09:06:13.966Z,118.92
2023-03-29T09:07:14.057Z,122.20
2023-03-29T09:08:14.094Z,120.52
2023-03-29T09:09:14.095Z,123.24
2023-03-29T09:10:14.113Z,126.41
2023-03-29T09:11:14.484Z,125.00
2023-03-29T09:12:14.300Z,128.00
2023-03-29T09:13:14.274Z,131.56
2023-03-29T09:14:14.264Z,134.20
2023-03-29T09:15:14.280Z,125.13
2023-03-29T09:16:14.676Z,85.27
2023-03-29T09:17:14.417Z,85.48
2023-03-29T09:18:14.432Z,93.94
2023-03-29T09:19:14.398Z,113.75
2023-03-29T09:20:14.391Z,117.81
2023-03-29T09:21:14.360Z,116.45
2023-03-29T09:22:14.401Z,119.94
2023-03-29T09:23:14.374Z,122.59
2023-03-29T09:24:14.385Z,120.18
2023-03-29T09:25:15.101Z,123.03
2023-03-29T09:26:14.636Z,125.65
2023-03-29T09:27:14.411Z,125.26
2023-03-29T09:28:14.474Z,125.77
2023-03-29T09:29:14.551Z,128.19
2023-03-29T09:30:14.483Z,129.78
2023-03-29T09:31:14.555Z,128.45
2023-03-29T09:32:14.537Z,128.81
2023-03-29T09:33:15.019Z,129.98
2023-03-29T09:34:15.912Z,132.53
2023-03-29T09:35:14.633Z,135.03
2023-03-29T09:36:15.815Z,135.03
2023-03-29T09:37:15.868Z,132.46
2023-03-29T09:38:14.671Z,132.61
2023-03-29T09:39:14.675Z,133.33
2023-03-29T09:40:14.697Z,134.51
2023-03-29T09:41:14.766Z,137.77
2023-03-29T09:42:14.844Z,142.08
2023-03-29T09:43:14.911Z,139.29
2023-03-29T09:44:27.737Z,142.26
2023-03-29T09:45:15.898Z,142.53
2023-03-29T09:46:14.972Z,142.31
2023-03-29T09:47:14.880Z,143.30
2023-03-29T09:48:14.878Z,143.92
2023-03-29T09:49:16.677Z,143.85
2023-03-29T09:50:29.492Z,145.66
2023-03-29T09:51:15.881Z,145.95
2023-03-29T09:52:14.910Z,146.56
2023-03-29T09:53:14.855Z,150.21
2023-03-29T09:54:14.856Z,155.26
2023-03-29T09:55:14.859Z,162.62
2023-03-29T09:56:14.837Z,163.32
2023-03-29T09:57:14.871Z,166.29
2023-03-29T09:58:14.836Z,169.31
2023-03-29T09:59:14.829Z,169.69
2023-03-29T10:00:14.858Z,173.09
2023-03-29T10:01:14.916Z,169.91
2023-03-29T10:02:15.002Z,171.94
2023-03-29T10:03:15.039Z,173.67
2023-03-29T10:04:15.123Z,177.06
2023-03-29T10:05:15.193Z,176.87
2023-03-29T10:06:15.185Z,177.42
2023-03-29T10:07:15.215Z,182.33
2023-03-29T10:08:16.591Z,180.29
2023-03-29T10:09:15.271Z,181.17
2023-03-29T10:10:15.360Z,184.85
2023-03-29T10:11:15.400Z,183.29
2023-03-29T10:12:15.416Z,179.55
2023-03-29T10:13:15.863Z,190.64
2023-03-29T10:14:15.502Z,189.73
2023-03-29T10:15:26.755Z,187.31
2023-03-29T10:16:16.496Z,187.59
2023-03-29T10:17:15.485Z,187.81
2023-03-29T10:18:15.478Z,187.76
2023-03-29T10:19:15.471Z,188.63
2023-03-29T10:20:15.551Z,189.97
2023-03-29T10:21:15.413Z,191.96
2023-03-29T10:22:15.476Z,188.62
2023-03-29T10:23:15.413Z,188.67
2023-03-29T10:24:15.432Z,183.85
2023-03-29T10:25:15.433Z,187.86
2023-03-29T10:26:15.375Z,184.90
2023-03-29T10:27:15.427Z,185.83
2023-03-29T10:28:15.434Z,182.42
2023-03-29T10:29:15.365Z,181.12
2023-03-29T10:30:15.387Z,184.65
2023-03-29T10:31:17.343Z,181.73
2023-03-29T10:32:15.542Z,180.35
2023-03-29T10:33:15.499Z,182.19
2023-03-29T10:34:15.531Z,181.09
2023-03-29T10:35:15.571Z,181.02
2023-03-29T10:36:15.650Z,178.13
2023-03-29T10:37:15.666Z,184.13
2023-03-29T10:38:15.740Z,180.02
2023-03-29T10:39:15.811Z,184.08
2023-03-29T10:40:15.818Z,181.38
2023-03-29T10:41:16.102Z,181.56
2023-03-29T10:42:15.938Z,174.61
2023-03-29T10:43:16.003Z,181.08
2023-03-29T10:44:16.033Z,174.35
2023-03-29T10:45:16.063Z,178.38
2023-03-29T10:46:16.190Z,178.42
2023-03-29T10:47:16.162Z,178.76
2023-03-29T10:48:16.232Z,175.89
2023-03-29T10:49:16.279Z,174.07
2023-03-29T10:50:16.310Z,174.62
2023-03-29T10:51:16.419Z,173.59
2023-03-29T10:52:16.488Z,170.34
2023-03-29T10:53:16.455Z,172.32
2023-03-29T10:54:16.544Z,175.19
2023-03-29T10:55:16.631Z,171.53
2023-03-29T10:56:16.691Z,170.18
2023-03-29T10:57:16.781Z,168.01
2023-03-29T10:58:16.783Z,167.28
2023-03-29T10:59:16.845Z,164.99
2023-03-29T11:00:16.930Z,163.79
2023-03-29T11:01:16.966Z,166.81
2023-03-29T11:02:17.068Z,160.56
2023-03-29T11:03:19.483Z,167.99
2023-03-29T11:04:17.103Z,168.11
2023-03-29T11:05:17.078Z,166.40
2023-03-29T11:06:17.035Z,141.76
2023-03-29T11:07:17.059Z,107.18
2023-03-29T11:08:17.009Z,108.94
2023-03-29T11:09:17.044Z,94.65
2023-03-29T11:10:17.060Z,92.61
2023-03-29T11:11:16.986Z,83.14
2023-03-29T11:12:17.137Z,80.50
2023-03-29T11:13:17.003Z,76.60
2023-03-29T11:14:17.002Z,72.07
2023-03-29T11:15:16.998Z,57.73
2023-03-29T11:16:17.004Z,56.49
2023-03-29T11:17:17.113Z,48.94
2023-03-29T11:18:16.974Z,59.05
2023-03-29T11:19:16.939Z,66.17
2023-03-29T11:20:16.945Z,64.70
2023-03-29T11:21:16.962Z,43.38
2023-03-29T11:22:16.967Z,32.50
2023-03-29T11:23:16.946Z,37.42
2023-03-29T11:24:16.920Z,34.66
2023-03-29T11:25:16.937Z,35.21
2023-03-29T11:26:16.954Z,44.59
2023-03-29T11:27:16.927Z,39.34
2023-03-29T11:28:16.909Z,49.78
2023-03-29T11:29:16.928Z,58.16
2023-03-29T11:30:16.989Z,62.29
2023-03-29T11:31:17.088Z,61.64
2023-03-29T11:32:17.154Z,63.56
2023-03-29T11:33:17.139Z,63.63
2023-03-29T11:34:17.196Z,66.65
2023-03-29T11:35:17.283Z,62.88
2023-03-29T11:36:17.368Z,70.90
2023-03-29T11:37:17.384Z,65.37
2023-03-29T11:38:17.480Z,70.65
2023-03-29T11:39:17.599Z,71.98
2023-03-29T11:40:17.616Z,74.31
2023-03-29T11:41:17.740Z,74.89
2023-03-29T11:42:17.762Z,76.77
2023-03-29T11:43:17.784Z,76.92
2023-03-29T11:44:17.842Z,80.34
2023-03-29T11:45:17.969Z,81.17
2023-03-29T11:46:18.019Z,83.93
2023-03-29T11:47:18.047Z,84.44
2023-03-29T11:48:18.111Z,89.00
2023-03-29T11:49:18.143Z,87.80
2023-03-29T11:50:18.276Z,91.34
2023-03-29T11:51:18.291Z,89.18
2023-03-29T11:52:18.457Z,86.64
2023-03-29T11:53:18.416Z,87.02
2023-03-29T11:54:18.485Z,91.82
2023-03-29T11:55:18.544Z,93.74
2023-03-29T11:56:18.587Z,90.28
2023-03-29T11:57:18.693Z,94.80
2023-03-29T11:58:18.739Z,87.34
2023-03-29T11:59:18.786Z,85.94
2023-03-29T12:00:18.867Z,81.29
2023-03-29T12:01:18.908Z,76.85
2023-03-29T12:02:18.991Z,75.91
2023-03-29T12:03:19.055Z,78.53
2023-03-29T12:04:19.080Z,78.64
2023-03-29T12:05:19.148Z,79.38
2023-03-29T12:06:19.224Z,65.43
2023-03-29T12:07:19.297Z,28.83
2023-03-29T12:08:19.362Z,25.75
2023-03-29T12:09:19.375Z,24.88
2023-03-29T12:10:19.464Z,20.56
2023-03-29T12:11:19.628Z,25.89
2023-03-29T12:12:19.558Z,26.09
2023-03-29T12:13:19.623Z,25.56
2023-03-29T12:14:19.683Z,25.00
2023-03-29T12:15:19.761Z,27.66
2023-03-29T12:16:19.824Z,26.62
2023-03-29T12:17:19.891Z,31.62
2023-03-29T12:18:19.901Z,28.41
2023-03-29T12:19:19.968Z,20.82
2023-03-29T12:20:20.020Z,25.53
2023-03-29T12:21:20.076Z,39.04
2023-03-29T12:22:20.111Z,34.33
2023-03-29T12:23:20.161Z,35.34
2023-03-29T12:24:20.187Z,13.16
2023-03-29T12:25:21.941Z,42.74
2023-03-29T12:26:20.354Z,18.34
2023-03-29T12:27:20.469Z,0.00
2023-03-29T12:28:20.197Z,0.00
2023-03-29T12:29:20.239Z,45.11
2023-03-29T12:30:20.233Z,54.60
2023-03-29T12:31:20.214Z,65.19
2023-03-29T12:32:20.205Z,66.94
2023-03-29T12:33:20.185Z,81.57
2023-03-29T12:34:20.160Z,72.87
2023-03-29T12:35:20.196Z,58.85
2023-03-29T12:36:20.163Z,70.20
2023-03-29T12:37:20.139Z,63.36
2023-03-29T12:38:20.144Z,31.93
2023-03-29T12:39:20.125Z,32.50
2023-03-29T12:40:20.125Z,32.59
2023-03-29T12:41:20.187Z,41.42
2023-03-29T12:42:20.102Z,31.82
2023-03-29T12:43:20.085Z,24.76
2023-03-29T12:44:20.082Z,24.95
2023-03-29T12:45:20.112Z,33.87
2023-03-29T12:46:20.184Z,5.80
2023-03-29T12:47:20.096Z,25.00
2023-03-29T12:48:20.063Z,25.78
2023-03-29T12:49:21.102Z,24.93
2023-03-29T12:50:20.061Z,38.83
2023-03-29T12:51:20.074Z,54.59
2023-03-29T12:52:20.033Z,76.85
2023-03-29T12:53:20.211Z,102.71
2023-03-29T12:54:20.041Z,125.01
2023-03-29T12:55:20.018Z,136.31
2023-03-29T12:56:20.004Z,142.71
2023-03-29T12:57:20.027Z,180.51
2023-03-29T12:58:19.994Z,210.07
2023-03-29T12:59:20.012Z,213.23
2023-03-29T13:00:19.973Z,209.70
2023-03-29T13:01:20.069Z,216.77
2023-03-29T13:02:19.967Z,235.59
2023-03-29T13:03:20.093Z,226.45
2023-03-29T13:04:19.966Z,217.83
2023-03-29T13:05:19.997Z,199.98
2023-03-29T13:06:19.983Z,236.71
2023-03-29T13:07:19.956Z,243.31
2023-03-29T13:08:19.916Z,250.00
2023-03-29T13:09:19.903Z,250.00
2023-03-29T13:10:19.915Z,246.16
2023-03-29T13:11:19.882Z,233.28
2023-03-29T13:12:19.896Z,250.24
2023-03-29T13:13:19.922Z,243.80
2023-03-29T13:14:19.903Z,247.93
2023-03-29T13:15:19.873Z,239.62
2023-03-29T13:16:19.945Z,241.05
2023-03-29T13:17:19.883Z,238.11
2023-03-29T13:18:19.837Z,173.62
2023-03-29T13:19:19.840Z,173.16
2023-03-29T13:20:19.844Z,176.64
2023-03-29T13:21:19.815Z,155.77
2023-03-29T13:22:19.830Z,144.94
2023-03-29T13:23:19.807Z,172.40
2023-03-29T13:24:19.870Z,190.81
2023-03-29T13:25:19.953Z,211.81
2023-03-29T13:26:19.987Z,205.89
2023-03-29T13:27:20.046Z,219.48
2023-03-29T13:28:20.060Z,227.79
2023-03-29T13:29:20.143Z,241.19
2023-03-29T13:30:20.167Z,245.05
2023-03-29T13:31:20.253Z,213.96
2023-03-29T13:32:20.240Z,207.83
2023-03-29T13:33:20.345Z,202.67
2023-03-29T13:34:20.407Z,189.73
2023-03-29T13:35:20.363Z,178.04
2023-03-29T13:36:20.448Z,159.92
2023-03-29T13:37:20.441Z,125.81
2023-03-29T13:38:20.431Z,86.15
2023-03-29T13:39:20.439Z,52.15
2023-03-29T13:40:20.480Z,37.71
2023-03-29T13:41:20.505Z,29.49
2023-03-29T13:42:20.555Z,25.09
2023-03-29T13:43:20.593Z,25.87
2023-03-29T13:44:20.614Z,24.92
2023-03-29T13:45:20.637Z,35.59
2023-03-29T13:46:20.682Z,37.54
2023-03-29T13:47:20.705Z,30.38
2023-03-29T13:48:20.766Z,27.80
2023-03-29T13:49:20.930Z,32.73
2023-03-29T13:50:20.871Z,44.48
2023-03-29T13:51:20.908Z,28.27
2023-03-29T13:52:20.935Z,30.68
2023-03-29T13:53:20.986Z,33.46
2023-03-29T13:54:21.008Z,25.26
2023-03-29T13:55:21.070Z,26.80
2023-03-29T13:56:21.140Z,24.37
2023-03-29T13:57:21.201Z,31.04
2023-03-29T13:58:21.217Z,56.20
2023-03-29T13:59:21.286Z,85.21
2023-03-29T14:00:21.354Z,90.85
2023-03-29T14:01:21.458Z,97.36
2023-03-29T14:02:21.476Z,115.62
2023-03-29T14:03:21.417Z,136.27
2023-03-29T14:04:21.416Z,134.15
2023-03-29T14:05:21.476Z,139.11
2023-03-29T14:06:21.512Z,143.73
2023-03-29T14:07:21.601Z,146.96
2023-03-29T14:08:21.620Z,150.08
2023-03-29T14:09:21.691Z,158.82
2023-03-29T14:10:21.724Z,151.57
2023-03-29T14:11:21.758Z,155.15
2023-03-29T14:12:21.727Z,156.68
2023-03-29T14:13:21.769Z,159.58
2023-03-29T14:14:21.832Z,165.58
2023-03-29T14:15:21.789Z,179.57
2023-03-29T14:16:21.870Z,190.60
2023-03-29T14:17:21.771Z,196.95
2023-03-29T14:18:21.805Z,197.97
2023-03-29T14:19:21.769Z,196.92
2023-03-29T14:20:21.871Z,201.96
2023-03-29T14:21:21.858Z,203.21
2023-03-29T14:22:21.925Z,213.69
2023-03-29T14:23:21.935Z,259.08
2023-03-29T14:24:22.012Z,259.31
2023-03-29T14:25:22.045Z,250.45
2023-03-29T14:26:22.118Z,250.00
2023-03-29T14:27:22.267Z,253.48
2023-03-29T14:28:22.320Z,286.05
2023-03-29T14:29:24.342Z,270.67
2023-03-29T14:30:22.301Z,246.72
2023-03-29T14:31:22.323Z,241.03
2023-03-29T14:32:22.301Z,244.24
2023-03-29T14:33:22.261Z,244.81
2023-03-29T14:34:22.277Z,249.89
2023-03-29T14:35:22.265Z,249.82
2023-03-29T14:36:22.296Z,247.68
2023-03-29T14:37:22.241Z,245.91
2023-03-29T14:38:22.259Z,244.61
2023-03-29T14:39:22.240Z,243.65
2023-03-29T14:40:22.242Z,243.82
2023-03-29T14:41:24.178Z,241.94
2023-03-29T14:42:22.207Z,243.31
2023-03-29T14:43:22.219Z,243.79
2023-03-29T14:44:22.226Z,243.03
2023-03-29T14:45:22.169Z,243.56
2023-03-29T14:46:22.254Z,243.58
2023-03-29T14:47:22.294Z,243.93
2023-03-29T14:48:22.339Z,244.19
2023-03-29T14:49:22.397Z,244.30
2023-03-29T14:50:22.461Z,244.64
2023-03-29T14:51:22.485Z,244.54
2023-03-29T14:52:22.556Z,244.17
2023-03-29T14:53:22.634Z,243.36
2023-03-29T14:54:22.641Z,244.25
2023-03-29T14:55:22.704Z,244.26
2023-03-29T14:56:22.792Z,243.64
2023-03-29T14:57:22.866Z,243.84
2023-03-29T14:58:22.921Z,243.48
2023-03-29T14:59:22.966Z,243.97
2023-03-29T15:00:23.009Z,244.10
2023-03-29T15:01:23.152Z,243.94
2023-03-29T15:02:23.162Z,244.23
2023-03-29T15:03:23.244Z,244.56
2023-03-29T15:04:23.204Z,244.52
2023-03-29T15:05:25.014Z,244.60
2023-03-29T15:06:23.320Z,245.03
2023-03-29T15:07:23.412Z,245.64
2023-03-29T15:08:23.533Z,245.61
2023-03-29T15:09:23.491Z,244.84
2023-03-29T15:10:23.559Z,244.99
2023-03-29T15:11:23.598Z,245.17
2023-03-29T15:12:23.636Z,245.01
2023-03-29T15:13:23.702Z,244.91
2023-03-29T15:14:23.786Z,245.39
2023-03-29T15:15:23.822Z,244.56
2023-03-29T15:16:23.882Z,244.11
2023-03-29T15:17:23.923Z,243.43
2023-03-29T15:18:24.124Z,243.06
2023-03-29T15:19:24.035Z,243.74
2023-03-29T15:20:24.039Z,243.66
2023-03-29T15:21:24.114Z,243.88
2023-03-29T15:22:24.143Z,241.94
2023-03-29T15:23:24.197Z,244.11
2023-03-29T15:24:24.299Z,242.32
2023-03-29T15:25:24.261Z,242.17
2023-03-29T15:26:24.311Z,242.97
2023-03-29T15:27:24.381Z,243.20
2023-03-29T15:28:24.507Z,241.79
2023-03-29T15:29:24.478Z,241.56
2023-03-29T15:30:24.508Z,242.04
2023-03-29T15:31:24.541Z,241.24
2023-03-29T15:32:24.629Z,241.82
2023-03-29T15:33:24.779Z,241.12
2023-03-29T15:34:24.676Z,240.90
2023-03-29T15:35:24.774Z,241.74
2023-03-29T15:36:24.794Z,240.98
2023-03-29T15:37:24.852Z,241.51
2023-03-29T15:38:30.329Z,242.07
2023-03-29T15:39:25.824Z,242.12
2023-03-29T15:40:24.804Z,240.97
2023-03-29T15:41:24.797Z,240.25
2023-03-29T15:42:24.817Z,239.43
2023-03-29T15:43:24.830Z,239.70
2023-03-29T15:44:24.803Z,241.73
2023-03-29T15:45:24.775Z,239.75
2023-03-29T15:46:24.837Z,240.16
2023-03-29T15:47:24.794Z,238.42
2023-03-29T15:48:24.789Z,240.30
2023-03-29T15:49:24.766Z,239.16
2023-03-29T15:50:24.747Z,240.53
2023-03-29T15:51:24.742Z,238.27
2023-03-29T15:52:24.739Z,238.24
2023-03-29T15:53:24.757Z,238.20
2023-03-29T15:54:25.219Z,238.14
2023-03-29T15:55:25.843Z,240.01
2023-03-29T15:56:24.814Z,238.54
2023-03-29T15:57:25.062Z,238.43
2023-03-29T15:58:24.886Z,236.91
2023-03-29T15:59:24.951Z,239.42
2023-03-29T16:00:25.016Z,238.44
2023-03-29T16:01:25.038Z,238.01
2023-03-29T16:02:25.159Z,237.14
2023-03-29T16:03:25.140Z,236.04
2023-03-29T16:04:25.118Z,238.09
2023-03-29T16:05:25.141Z,236.16
2023-03-29T16:06:25.194Z,237.17
2023-03-29T16:07:25.240Z,237.73
2023-03-29T16:08:26.342Z,237.48
2023-03-29T16:09:25.285Z,237.61
2023-03-29T16:10:25.289Z,237.45
2023-03-29T16:11:25.349Z,236.53
2023-03-29T16:12:25.352Z,236.03
2023-03-29T16:13:25.364Z,235.85
2023-03-29T16:14:25.536Z,235.15
2023-03-29T16:15:25.450Z,236.69
2023-03-29T16:16:25.553Z,235.57
2023-03-29T16:17:25.583Z,235.62
2023-03-29T16:18:25.518Z,235.16
2023-03-29T16:19:25.563Z,235.48
2023-03-29T16:20:25.591Z,234.57
2023-03-29T16:21:25.624Z,236.63
2023-03-29T16:22:25.678Z,234.25
2023-03-29T16:23:25.674Z,234.04
2023-03-29T16:24:25.738Z,235.17
2023-03-29T16:25:25.729Z,235.30
2023-03-29T16:26:25.755Z,235.10
2023-03-29T16:27:25.837Z,234.71
2023-03-29T16:28:25.813Z,231.92
2023-03-29T16:29:25.877Z,234.55
2023-03-29T16:30:25.880Z,233.82
2023-03-29T16:31:26.012Z,234.55
2023-03-29T16:32:26.001Z,233.87
2023-03-29T16:33:25.956Z,231.66
2023-03-29T16:34:25.987Z,233.73
2023-03-29T16:35:26.035Z,233.51
2023-03-29T16:36:26.089Z,233.52
2023-03-29T16:37:26.106Z,233.02
2023-03-29T16:38:26.121Z,232.96
2023-03-29T16:39:26.176Z,232.21
2023-03-29T16:40:26.165Z,232.15
2023-03-29T16:41:26.302Z,230.96
2023-03-29T16:42:26.284Z,231.34
2023-03-29T16:43:26.279Z,231.36
2023-03-29T16:44:26.335Z,231.49
2023-03-29T16:45:26.379Z,232.45
2023-03-29T16:46:26.451Z,230.75
2023-03-29T16:47:26.437Z,230.99
2023-03-29T16:48:26.446Z,227.44
2023-03-29T16:49:26.498Z,229.93
2023-03-29T16:50:26.567Z,230.67
2023-03-29T16:51:26.588Z,230.34
2023-03-29T16:52:26.611Z,230.84
2023-03-29T16:53:26.659Z,230.89
2023-03-29T16:54:26.634Z,228.02
2023-03-29T16:55:26.690Z,230.48
2023-03-29T16:56:26.732Z,229.09
2023-03-29T16:57:26.872Z,229.12
2023-03-29T16:58:26.807Z,228.99
2023-03-29T16:59:26.799Z,229.35
2023-03-29T17:00:26.863Z,229.07
